Time;durP1;ratioP1;P1;durP2;ratioP2;P2;SDS_P1;SDS_P2;PMS_P1;PMS_P2;Temp;Humidity;BMP_temperature;BMP_pressure;BME280_temperature;BME280_humidity;BME280_pressure;Samples;Min_cycle;Max_cycle;Signal;HPM_P1;HPM_P2
2022/11/06 00:01:14;;;;;;;11.20;8.30;;;1.80;99.90;1.40;100923.00;;;;4883209;28;87833;-68
2022/11/06 00:03:41;;;;;;;13.00;9.33;;;1.70;99.90;1.40;100929.00;;;;4880480;28;88218;-68
2022/11/06 00:08:59;;;;;;;17.80;9.03;;;2.40;99.90;1.30;100921.00;;;;4883789;28;87972;-69
2022/11/06 00:11:24;;;;;;;15.67;11.93;;;1.80;99.90;1.30;100923.00;;;;4879372;28;87804;-68
2022/11/06 00:13:53;;;;;;;10.87;9.63;;;1.60;99.90;1.30;100918.00;;;;4879024;28;110566;-68
2022/11/06 00:16:19;;;;;;;9.13;8.10;;;1.60;99.90;1.30;100922.00;;;;4881037;28;87784;-68
2022/11/06 00:18:45;;;;;;;13.43;7.90;;;1.60;99.90;1.30;100918.00;;;;4882381;28;87862;-68
2022/11/06 00:21:30;;;;;;;10.17;9.17;;;1.60;99.90;1.20;100915.00;;;;4883011;28;88952;-68
2022/11/06 00:23:59;;;;;;;13.33;9.17;;;1.60;99.90;1.30;100912.00;;;;4879444;28;88010;-68
2022/11/06 00:26:28;;;;;;;15.20;9.93;;;1.60;99.90;1.20;100919.00;;;;4881005;28;87625;-68
2022/11/06 00:28:54;;;;;;;10.17;9.07;;;1.60;99.90;1.20;100910.00;;;;4882363;28;89154;-68
2022/11/06 00:31:27;;;;;;;12.80;7.43;;;1.50;99.90;1.20;100912.00;;;;4881253;28;89439;-68
2022/11/06 00:33:55;;;;;;;13.67;7.13;;;1.50;99.90;1.20;100911.00;;;;4881673;28;87668;-68
2022/11/06 00:36:23;;;;;;;9.27;6.37;;;1.50;99.90;1.20;100912.00;;;;4883213;28;103894;-70
2022/11/06 00:38:53;;;;;;;14.33;8.80;;;1.50;99.90;1.20;100918.00;;;;4899033;28;87048;-68
2022/11/06 00:41:20;;;;;;;10.53;8.10;;;1.60;99.90;1.20;100915.00;;;;4876155;28;87858;-69
2022/11/06 00:43:52;;;;;;;11.07;8.40;;;1.50;99.90;1.20;100927.00;;;;4881368;28;87824;-67
2022/11/06 00:46:20;;;;;;;12.27;9.00;;;1.50;99.90;1.20;100922.00;;;;4880072;28;88869;-68
2022/11/06 00:48:46;;;;;;;13.23;10.07;;;1.50;99.90;1.20;100917.00;;;;4902432;28;87986;-67
2022/11/06 00:51:14;;;;;;;14.37;8.80;;;1.60;99.90;1.20;100914.00;;;;4880118;28;109115;-69
2022/11/06 00:53:40;;;;;;;11.50;9.17;;;1.50;99.90;1.20;100909.00;;;;4880557;28;105196;-66
2022/11/06 00:56:12;;;;;;;15.87;9.13;;;1.50;99.90;1.20;100918.00;;;;4887481;28;88232;-68
2022/11/06 00:58:39;;;;;;;11.50;8.83;;;1.50;99.90;1.20;100915.00;;;;4884152;28;88543;-68
2022/11/06 01:01:09;;;;;;;15.40;10.23;;;1.50;99.90;1.10;100908.00;;;;4880812;28;88035;-68
2022/11/06 01:03:37;;;;;;;17.40;11.33;;;1.40;99.90;1.10;100912.00;;;;4881749;28;87158;-68
2022/11/06 01:06:12;;;;;;;10.73;8.47;;;1.40;99.90;1.10;100910.00;;;;4883296;28;88031;-67
2022/11/06 01:08:39;;;;;;;11.03;9.93;;;1.50;99.90;1.10;100910.00;;;;4881738;28;88079;-67
2022/11/06 01:11:14;;;;;;;12.17;9.87;;;1.40;99.90;1.00;100916.00;;;;4878511;28;107548;-67
2022/11/06 01:13:41;;;;;;;12.77;8.37;;;1.40;99.90;1.00;100915.00;;;;4883157;28;88017;-67
2022/11/06 01:16:09;;;;;;;14.03;9.23;;;1.40;99.90;1.00;100909.00;;;;4879364;28;87838;-68
2022/11/06 01:18:36;;;;;;;13.13;8.17;;;1.40;99.90;1.00;100909.00;;;;4864908;28;90630;-68
2022/11/06 01:21:07;;;;;;;9.20;6.20;;;1.30;99.90;1.00;100918.00;;;;4880067;28;110269;-68
2022/11/06 01:23:33;;;;;;;9.80;6.80;;;1.30;99.90;1.00;100911.00;;;;4881017;28;103761;-68
2022/11/06 01:26:01;;;;;;;11.10;7.33;;;1.30;99.90;0.90;100907.00;;;;4877634;28;91906;-68
2022/11/06 01:28:28;;;;;;;9.33;6.80;;;2.00;99.90;0.90;100905.00;;;;4878459;28;87567;-68
2022/11/06 01:30:54;;;;;;;7.87;7.07;;;1.30;99.90;0.90;100903.00;;;;4880746;28;87793;-68
2022/11/06 01:33:20;;;;;;;9.80;7.10;;;1.20;99.90;0.90;100899.00;;;;4893299;28;109260;-68
2022/11/06 01:35:50;;;;;;;11.40;8.07;;;1.20;99.90;0.90;100902.00;;;;4880201;28;88987;-68
2022/11/06 01:38:17;;;;;;;16.83;11.67;;;1.20;99.90;0.90;100891.00;;;;4877599;28;89091;-68
2022/11/06 01:40:47;;;;;;;12.03;7.97;;;1.30;99.90;0.90;100886.00;;;;4880976;28;87918;-68
2022/11/06 01:43:21;;;;;;;9.23;7.03;;;1.30;99.90;0.90;100895.00;;;;4882935;28;87867;-68
2022/11/06 01:45:54;;;;;;;12.27;8.73;;;1.20;99.90;0.90;100896.00;;;;4885218;28;87810;-68
2022/11/06 01:48:26;;;;;;;11.63;9.23;;;1.30;99.90;0.90;100887.00;;;;4878994;28;88932;-69
2022/11/06 01:50:55;;;;;;;11.47;7.17;;;1.20;99.90;0.90;100886.00;;;;4883675;28;118125;-69
2022/11/06 01:53:23;;;;;;;15.77;9.83;;;1.20;99.90;0.90;100884.00;;;;4879707;28;102826;-69
2022/11/06 01:55:54;;;;;;;8.77;6.57;;;1.20;99.90;0.90;100882.00;;;;4878883;28;90953;-68
2022/11/06 01:58:24;;;;;;;18.70;9.23;;;1.20;99.90;0.90;100880.00;;;;4891727;28;88344;-68
2022/11/06 02:00:50;;;;;;;10.63;7.27;;;1.20;99.90;0.90;100877.00;;;;4881583;28;112046;-68
2022/11/06 02:03:15;;;;;;;8.43;6.47;;;1.20;99.90;0.90;100874.00;;;;4894058;28;110032;-69
2022/11/06 02:05:41;;;;;;;17.80;7.40;;;1.20;99.90;0.90;100876.00;;;;4879784;28;108304;-69
2022/11/06 02:08:12;;;;;;;9.47;6.70;;;1.20;99.90;0.90;100888.00;;;;4881052;28;88329;-68
2022/11/06 02:10:39;;;;;;;8.70;6.13;;;1.30;99.90;0.90;100880.00;;;;4897513;28;88980;-69
2022/11/06 02:13:23;;;;;;;7.80;5.37;;;1.20;99.90;0.90;100874.00;;;;4882459;28;87838;-69
2022/11/06 02:16:11;;;;;;;7.57;5.13;;;1.20;99.90;0.90;100868.00;;;;4895261;28;87994;-69
2022/11/06 02:19:23;;;;;;;10.00;6.70;;;1.20;99.90;0.80;100867.00;;;;4884797;28;117163;-69
2022/11/06 02:22:26;;;;;;;16.77;7.77;;;1.20;99.90;0.80;100862.00;;;;4883027;28;101923;-69
2022/11/06 02:25:33;;;;;;;6.93;5.43;;;1.20;99.90;0.80;100858.00;;;;4885579;28;87716;-69
2022/11/06 02:28:31;;;;;;;6.37;4.87;;;1.20;99.90;0.80;100862.00;;;;4898420;28;101237;-69
2022/11/06 02:31:04;;;;;;;6.77;5.10;;;1.10;99.90;0.80;100865.00;;;;4882291;28;111970;-69
2022/11/06 02:33:37;;;;;;;7.47;4.17;;;1.20;99.90;0.90;100862.00;;;;4881242;28;88291;-69
2022/11/06 02:36:16;;;;;;;9.20;6.10;;;1.20;99.90;0.80;100862.00;;;;4882251;28;100289;-69
2022/11/06 02:38:54;;;;;;;5.60;4.50;;;1.30;99.90;0.80;100862.00;;;;4880113;28;87839;-69
2022/11/06 02:41:36;;;;;;;5.83;4.30;;;1.20;99.90;0.80;100867.00;;;;4879297;28;112534;-71
2022/11/06 02:44:08;;;;;;;5.53;4.00;;;1.20;99.90;0.80;100866.00;;;;4865640;28;115251;-70
2022/11/06 02:46:40;;;;;;;6.43;3.77;;;1.20;99.90;0.90;100864.00;;;;4883580;28;92222;-70
2022/11/06 02:49:17;;;;;;;6.63;4.47;;;1.20;99.90;0.80;100858.00;;;;4879603;28;90967;-70
2022/11/06 02:51:52;;;;;;;3.27;2.67;;;1.20;99.90;0.80;100853.00;;;;4881339;28;113750;-70
2022/11/06 02:54:21;;;;;;;4.13;2.83;;;1.10;99.90;0.90;100861.00;;;;4881927;28;111102;-71
2022/11/06 02:56:50;;;;;;;8.30;6.13;;;1.20;99.90;0.80;100861.00;;;;4881014;28;87892;-70
2022/11/06 02:59:33;;;;;;;9.33;5.50;;;1.20;99.90;0.80;100860.00;;;;4880333;28;101354;-70
2022/11/06 03:02:06;;;;;;;8.00;4.77;;;1.20;99.90;0.90;100851.00;;;;4895553;28;112972;-70
2022/11/06 03:05:04;;;;;;;9.43;4.13;;;1.20;99.90;0.90;100853.00;;;;4883443;28;90011;-71
2022/11/06 03:07:49;;;;;;;3.90;3.07;;;1.30;99.90;0.90;100856.00;;;;4884244;28;87705;-70
2022/11/06 03:10:15;;;;;;;7.93;4.87;;;1.30;99.90;0.90;100860.00;;;;4881276;28;87955;-70
2022/11/06 03:13:00;;;;;;;4.80;4.20;;;1.30;99.90;0.90;100860.00;;;;4882426;28;117046;-70
2022/11/06 03:15:42;;;;;;;4.60;3.93;;;1.30;99.90;0.90;100854.00;;;;4885808;28;87837;-70
2022/11/06 03:18:18;;;;;;;4.43;3.43;;;1.30;99.90;0.90;100859.00;;;;4880701;28;87928;-70
2022/11/06 03:21:01;;;;;;;8.27;4.93;;;1.30;99.90;0.80;100861.00;;;;4897799;28;102031;-70
2022/11/06 03:23:34;;;;;;;9.87;4.90;;;1.20;99.90;0.80;100854.00;;;;4880613;28;111361;-70
2022/11/06 03:26:37;;;;;;;7.43;4.13;;;1.20;99.90;0.80;100855.00;;;;4883860;28;103368;-70
2022/11/06 03:29:11;;;;;;;4.07;3.67;;;1.20;99.90;0.80;100850.00;;;;4879615;28;87878;-70
2022/11/06 03:31:55;;;;;;;4.27;3.57;;;1.20;99.90;0.80;100850.00;;;;4880657;28;87998;-70
2022/11/06 03:34:31;;;;;;;4.80;3.87;;;1.20;99.90;0.80;100853.00;;;;4886271;28;88277;-70
2022/11/06 03:37:10;;;;;;;5.87;3.33;;;1.20;99.90;0.70;100853.00;;;;4879214;28;111508;-70
2022/11/06 03:39:45;;;;;;;3.27;2.97;;;1.10;99.90;0.80;100848.00;;;;4882298;28;104258;-70
2022/11/06 03:42:16;;;;;;;2.93;2.63;;;1.10;99.90;0.80;100846.00;;;;4887368;28;93144;-70
2022/11/06 03:44:51;;;;;;;7.33;5.17;;;1.00;99.90;0.70;100845.00;;;;4880557;28;104193;-71
2022/11/06 03:47:25;;;;;;;3.90;2.83;;;1.20;99.90;0.70;100846.00;;;;4881749;28;110515;-71
2022/11/06 03:50:02;;;;;;;5.23;3.93;;;1.10;99.90;0.70;100839.00;;;;4890540;28;96430;-70
2022/11/06 03:52:37;;;;;;;3.90;3.20;;;1.00;99.90;0.70;100849.00;;;;4881753;28;88027;-71
2022/11/06 03:55:17;;;;;;;6.10;4.47;;;1.00;99.90;0.60;100839.00;;;;4881630;28;112252;-71
2022/11/06 03:57:53;;;;;;;2.60;2.40;;;0.90;99.90;0.60;100844.00;;;;4882620;28;105664;-71
2022/11/06 04:00:19;;;;;;;4.43;2.87;;;1.00;99.90;0.60;100843.00;;;;4879012;28;103783;-71
2022/11/06 04:03:03;;;;;;;4.73;3.30;;;0.90;99.90;0.60;100844.00;;;;4879370;28;88138;-71
2022/11/06 04:05:37;;;;;;;8.27;4.67;;;1.00;99.90;0.60;100837.00;;;;4880363;28;87236;-71
2022/11/06 04:13:59;;;;;;;6.10;4.37;;;0.90;99.90;0.60;100851.00;;;;4880003;28;88788;-71
2022/11/06 04:16:30;;;;;;;12.33;6.07;;;0.90;99.90;0.50;100837.00;;;;4879601;28;89568;-70
2022/11/06 04:18:57;;;;;;;6.60;4.50;;;0.90;99.90;0.50;100829.00;;;;4883748;28;87998;-70
2022/11/06 04:21:57;;;;;;;4.70;4.03;;;0.90;99.90;0.50;100836.00;;;;4885856;28;87822;-73
2022/11/06 04:27:48;;;;;;;5.53;4.37;;;1.10;99.90;0.50;100838.00;;;;4882376;28;87821;-70
2022/11/06 04:30:19;;;;;;;3.83;2.93;;;0.80;99.90;0.50;100837.00;;;;4883963;28;87854;-71
2022/11/06 04:32:56;;;;;;;3.80;3.00;;;0.80;99.90;0.40;100835.00;;;;4879487;28;87104;-70
2022/11/06 04:35:54;;;;;;;10.47;4.23;;;0.80;99.90;0.40;100850.00;;;;4882019;28;88007;-71
2022/11/06 04:38:52;;;;;;;4.87;3.93;;;0.80;99.90;0.40;100833.00;;;;4880064;28;106968;-70
2022/11/06 04:41:38;;;;;;;9.00;5.37;;;0.80;99.90;0.30;100830.00;;;;4879866;28;111030;-70
2022/11/06 04:44:13;;;;;;;6.37;4.23;;;0.70;99.90;0.40;100825.00;;;;4880262;28;88047;-70
2022/11/06 04:47:00;;;;;;;6.97;4.17;;;0.70;99.90;0.30;100817.00;;;;4883849;28;88129;-72
2022/11/06 04:49:30;;;;;;;7.73;3.27;;;0.80;99.90;0.30;100820.00;;;;4878153;28;105074;-71
2022/11/06 04:51:57;;;;;;;7.13;4.43;;;0.70;99.90;0.30;100822.00;;;;4878588;28;107325;-71
2022/11/06 04:54:23;;;;;;;4.47;3.23;;;0.70;99.90;0.30;100818.00;;;;4877998;28;87871;-71
2022/11/06 04:56:49;;;;;;;5.97;4.20;;;0.60;99.90;0.30;100820.00;;;;4880434;28;107971;-71
2022/11/06 04:59:17;;;;;;;6.80;4.37;;;0.60;99.90;0.30;100811.00;;;;4883856;28;118042;-70
2022/11/06 05:01:44;;;;;;;2.40;2.17;;;0.70;99.90;0.30;100815.00;;;;4881546;28;87886;-70
2022/11/06 05:04:11;;;;;;;5.70;3.80;;;0.70;99.90;0.20;100810.00;;;;4880273;28;87632;-69
2022/11/06 05:06:37;;;;;;;6.07;2.67;;;0.50;99.90;0.20;100801.00;;;;4886157;28;88901;-70
2022/11/06 05:09:02;;;;;;;4.57;3.10;;;0.60;99.90;0.30;100808.00;;;;4882021;28;115848;-70
2022/11/06 05:11:28;;;;;;;3.67;3.33;;;0.60;99.90;0.40;100807.00;;;;4880014;28;101229;-69
2022/11/06 05:13:54;;;;;;;5.50;3.87;;;0.90;99.90;0.40;100799.00;;;;4880995;28;109462;-70
2022/11/06 05:16:19;;;;;;;3.13;2.77;;;0.70;99.90;0.50;100805.00;;;;4885598;28;108292;-70
2022/11/06 05:18:45;;;;;;;9.67;3.27;;;0.80;99.90;0.50;100794.00;;;;4882233;28;89680;-70
2022/11/06 05:23:55;;;;;;;4.90;3.50;;;0.80;99.90;0.60;100808.00;;;;4877214;28;87321;-70
2022/11/06 05:26:21;;;;;;;3.70;2.77;;;1.00;99.90;0.60;100797.00;;;;4880560;28;108304;-70
2022/11/06 05:28:47;;;;;;;9.83;4.90;;;0.90;99.90;0.60;100809.00;;;;4878455;28;88004;-70
2022/11/06 05:31:12;;;;;;;7.77;4.50;;;0.90;99.90;0.60;100801.00;;;;4881310;28;116931;-70
2022/11/06 05:33:38;;;;;;;9.47;4.57;;;0.90;99.90;0.50;100805.00;;;;4892860;28;109705;-70
2022/11/06 05:36:05;;;;;;;5.13;3.57;;;0.90;99.90;0.50;100797.00;;;;4877965;28;95111;-69
2022/11/06 05:38:31;;;;;;;6.70;3.90;;;0.90;99.90;0.50;100789.00;;;;4881143;28;95249;-70
2022/11/06 05:40:57;;;;;;;6.60;4.10;;;0.80;99.90;0.40;100794.00;;;;4881285;28;88305;-70
2022/11/06 05:43:23;;;;;;;7.93;3.60;;;0.80;99.90;0.40;100800.00;;;;4884160;28;100786;-69
2022/11/06 05:45:49;;;;;;;6.37;4.03;;;1.50;99.90;0.40;100796.00;;;;4880412;28;87772;-68
2022/11/06 05:48:15;;;;;;;5.23;3.50;;;0.80;99.90;0.50;100784.00;;;;4879691;28;116069;-68
2022/11/06 05:50:41;;;;;;;9.60;4.40;;;0.70;99.90;0.50;100792.00;;;;4880989;28;87882;-69
2022/11/06 05:53:06;;;;;;;5.63;4.03;;;0.90;99.90;0.60;100784.00;;;;4889063;28;110140;-69
2022/11/06 05:55:32;;;;;;;4.90;3.97;;;0.90;99.90;0.70;100790.00;;;;4887989;28;108662;-69
2022/11/06 05:57:58;;;;;;;6.33;4.10;;;1.00;99.90;0.80;100804.00;;;;4886982;28;117766;-69
2022/11/06 06:00:23;;;;;;;6.50;3.03;;;1.00;99.90;1.00;100792.00;;;;4886367;28;104376;-69
2022/11/06 06:02:49;;;;;;;3.77;3.33;;;1.20;99.90;1.10;100785.00;;;;4887236;28;109875;-69
2022/11/06 06:05:15;;;;;;;7.13;4.50;;;1.30;99.90;1.10;100797.00;;;;4887152;28;87772;-70
2022/11/06 06:07:41;;;;;;;2.47;2.30;;;1.40;99.90;1.10;100784.00;;;;4887105;28;88230;-70
2022/11/06 06:10:08;;;;;;;4.47;3.20;;;1.40;99.90;1.10;100791.00;;;;4887480;28;117747;-70
2022/11/06 06:12:34;;;;;;;5.43;3.97;;;1.40;99.90;1.10;100792.00;;;;4888993;28;87010;-71
2022/11/06 06:15:00;;;;;;;5.03;2.67;;;2.00;99.90;1.10;100798.00;;;;4888805;28;91332;-70
2022/11/06 06:17:26;;;;;;;4.10;3.00;;;1.40;99.90;1.00;100801.00;;;;4883277;28;118253;-70
2022/11/06 06:19:52;;;;;;;6.13;3.03;;;0.70;99.90;1.00;100800.00;;;;4885786;28;117106;-69
2022/11/06 06:22:17;;;;;;;6.33;3.47;;;1.30;99.90;0.90;100803.00;;;;4888312;28;109769;-70
2022/11/06 06:24:43;;;;;;;7.10;3.70;;;1.30;99.90;0.90;100798.00;;;;4887502;28;109056;-69
2022/11/06 06:27:09;;;;;;;7.23;3.63;;;1.20;99.90;0.80;100809.00;;;;4883871;28;117646;-69
2022/11/06 06:29:35;;;;;;;4.00;3.03;;;1.20;99.90;0.80;100798.00;;;;4887851;28;89904;-69
2022/11/06 06:32:00;;;;;;;2.87;2.47;;;1.20;99.90;0.90;100797.00;;;;4887743;28;111263;-71
2022/11/06 06:34:26;;;;;;;9.50;6.77;;;1.10;99.90;1.00;100802.00;;;;4883545;28;107470;-70
2022/11/06 06:36:53;;;;;;;6.00;3.63;;;1.30;99.90;1.10;100803.00;;;;4883625;28;115998;-70
2022/11/06 06:39:19;;;;;;;4.73;4.33;;;1.40;99.90;1.30;100807.00;;;;4886355;28;93887;-69
2022/11/06 06:41:47;;;;;;;5.40;3.87;;;2.00;99.90;1.50;100816.00;;;;4889901;28;100755;-70
2022/11/06 06:44:13;;;;;;;6.77;3.77;;;1.70;99.90;1.60;100817.00;;;;4883587;28;88698;-70
2022/11/06 06:46:39;;;;;;;6.90;4.60;;;1.90;99.90;1.80;100815.00;;;;4883529;28;93743;-70
2022/11/06 06:49:04;;;;;;;6.57;5.40;;;2.00;99.90;1.90;100825.00;;;;4881251;28;87756;-70
2022/11/06 06:51:30;;;;;;;6.03;4.77;;;2.10;99.90;2.10;100822.00;;;;4884106;28;110719;-70
2022/11/06 06:53:56;;;;;;;7.07;4.70;;;2.30;99.90;2.30;100824.00;;;;4887147;28;107860;-70
2022/11/06 06:56:22;;;;;;;5.67;5.07;;;2.50;99.90;2.60;100837.00;;;;4881157;28;116139;-70
2022/11/06 06:58:48;;;;;;;6.33;4.97;;;2.70;99.90;2.80;100833.00;;;;4882224;28;109883;-70
2022/11/06 07:01:13;;;;;;;6.30;4.27;;;3.00;99.90;3.10;100845.00;;;;4881352;28;87353;-69
2022/11/06 07:03:39;;;;;;;8.73;5.23;;;3.30;99.90;3.40;100846.00;;;;4880375;28;87568;-69
2022/11/06 07:06:06;;;;;;;4.37;3.77;;;3.60;99.90;3.60;100855.00;;;;4880204;28;88178;-69
2022/11/06 07:08:32;;;;;;;3.83;3.47;;;3.70;99.90;3.90;100848.00;;;;4876831;28;90466;-69
2022/11/06 07:11:07;;;;;;;4.50;3.30;;;4.10;99.90;4.20;100852.00;;;;4877438;28;110834;-69
2022/11/06 07:13:33;;;;;;;2.80;2.07;;;4.30;99.90;4.40;100863.00;;;;4878001;28;89068;-69
2022/11/06 07:16:06;;;;;;;3.30;3.00;;;4.50;99.90;4.70;100861.00;;;;4880678;28;111496;-69
2022/11/06 07:18:33;;;;;;;3.63;2.70;;;4.80;99.90;4.90;100853.00;;;;4879689;28;111066;-69
2022/11/06 07:20:58;;;;;;;2.70;2.50;;;5.10;99.90;5.20;100857.00;;;;4879515;28;87890;-70
2022/11/06 07:23:24;;;;;;;4.00;3.13;;;5.40;99.90;5.50;100861.00;;;;4882004;28;109631;-70
2022/11/06 07:25:53;;;;;;;5.10;3.07;;;5.50;99.90;5.80;100861.00;;;;4881424;28;116209;-69
2022/11/06 07:28:20;;;;;;;2.93;2.03;;;5.90;99.90;6.10;100859.00;;;;4878104;28;100896;-69
2022/11/06 07:30:45;;;;;;;3.67;2.23;;;6.20;99.90;6.40;100861.00;;;;4879413;28;90453;-70
2022/11/06 07:33:11;;;;;;;3.00;2.40;;;6.50;99.90;6.60;100859.00;;;;4878707;28;108819;-69
2022/11/06 07:35:37;;;;;;;4.13;2.70;;;6.90;99.90;6.90;100879.00;;;;4875985;28;117042;-68
2022/11/06 07:38:05;;;;;;;3.97;2.23;;;7.50;99.90;7.30;100875.00;;;;4881221;28;116892;-69
2022/11/06 07:40:32;;;;;;;1.93;1.83;;;7.30;99.90;7.50;100859.00;;;;4879344;28;88993;-69
2022/11/06 07:43:09;;;;;;;2.43;2.17;;;7.60;99.90;7.80;100866.00;;;;4884926;28;87977;-69
2022/11/06 07:45:37;;;;;;;8.03;2.10;;;8.20;99.90;8.10;100863.00;;;;4896397;28;88236;-69
2022/11/06 07:48:03;;;;;;;3.53;2.10;;;8.10;99.90;8.30;100862.00;;;;4877593;28;108514;-69
2022/11/06 07:50:29;;;;;;;3.20;2.73;;;8.40;99.90;8.60;100869.00;;;;4880084;28;100692;-69
2022/11/06 07:52:55;;;;;;;7.70;2.63;;;8.60;99.90;8.80;100857.00;;;;4887769;28;100627;-68
2022/11/06 07:55:21;;;;;;;3.60;2.60;;;8.80;99.90;8.90;100863.00;;;;4879590;28;112400;-69
2022/11/06 07:57:47;;;;;;;3.33;2.30;;;9.00;99.90;9.10;100862.00;;;;4878446;28;89036;-68
2022/11/06 08:00:13;;;;;;;2.67;2.30;;;9.20;99.90;9.20;100859.00;;;;4876147;28;110640;-69
2022/11/06 08:02:40;;;;;;;3.27;2.67;;;9.30;99.90;9.40;100856.00;;;;4901806;28;88051;-68
2022/11/06 08:05:06;;;;;;;3.47;2.13;;;9.40;99.90;9.50;100865.00;;;;4877418;28;88962;-68
2022/11/06 08:07:31;;;;;;;4.10;2.40;;;9.60;99.90;9.70;100869.00;;;;4878910;28;88825;-69
2022/11/06 08:09:57;;;;;;;3.33;2.27;;;9.70;99.90;9.80;100861.00;;;;4878122;28;111665;-67
2022/11/06 08:12:23;;;;;;;2.30;1.80;;;9.80;99.90;10.00;100852.00;;;;4877695;28;108413;-70
2022/11/06 08:14:48;;;;;;;2.60;1.87;;;10.00;99.90;10.20;100850.00;;;;4876502;28;116319;-68
2022/11/06 08:17:14;;;;;;;2.63;2.27;;;10.20;99.90;10.40;100866.00;;;;4876333;28;114890;-67
2022/11/06 08:19:39;;;;;;;2.37;1.63;;;10.40;99.90;10.60;100865.00;;;;4882988;28;110626;-67
2022/11/06 08:22:05;;;;;;;2.47;1.33;;;10.60;99.90;10.80;100859.00;;;;4877667;28;109108;-67
2022/11/06 08:24:31;;;;;;;2.20;1.73;;;10.80;99.90;10.90;100849.00;;;;4879965;28;88204;-69
2022/11/06 08:26:57;;;;;;;2.70;1.53;;;10.90;99.90;11.10;100850.00;;;;4878382;28;117129;-69
2022/11/06 08:29:23;;;;;;;2.20;1.83;;;11.10;99.90;11.30;100847.00;;;;4880121;28;88735;-67
2022/11/06 08:31:49;;;;;;;2.23;2.03;;;11.30;99.90;11.40;100845.00;;;;4876085;28;109543;-68
2022/11/06 08:34:14;;;;;;;1.70;1.33;;;11.40;99.90;11.50;100839.00;;;;4877714;28;90231;-67
2022/11/06 08:36:44;;;;;;;2.20;1.57;;;11.50;99.90;11.70;100837.00;;;;4880830;28;115868;-67
2022/11/06 08:39:11;;;;;;;18.23;9.33;;;11.60;99.90;11.80;100837.00;;;;4879695;28;87152;-67
2022/11/06 08:41:40;;;;;;;1.37;1.27;;;11.80;99.90;12.10;100838.00;;;;4878972;28;87722;-66
2022/11/06 08:44:06;;;;;;;3.83;1.63;;;12.00;99.90;12.10;100830.00;;;;4876906;28;88160;-68
2022/11/06 08:46:32;;;;;;;2.20;2.00;;;12.10;99.90;12.20;100839.00;;;;4877782;28;117343;-67
2022/11/06 08:48:58;;;;;;;3.70;1.80;;;12.20;99.90;12.40;100828.00;;;;4881692;28;98039;-66
2022/11/06 08:51:23;;;;;;;2.53;1.60;;;12.30;99.90;12.40;100844.00;;;;4877084;28;109015;-67
2022/11/06 08:53:49;;;;;;;3.23;1.80;;;12.40;99.90;12.50;100844.00;;;;4881701;28;101764;-65
2022/11/06 08:56:15;;;;;;;3.20;1.50;;;12.40;99.90;12.60;100830.00;;;;4880422;28;88676;-65
2022/11/06 08:58:41;;;;;;;3.03;2.27;;;12.50;99.90;12.70;100833.00;;;;4880734;28;87905;-68
2022/11/06 09:01:07;;;;;;;3.33;1.80;;;12.70;99.90;12.90;100833.00;;;;4883411;28;92893;-67
2022/11/06 09:03:32;;;;;;;2.43;1.70;;;13.30;99.90;13.10;100835.00;;;;4878416;28;88301;-66
2022/11/06 09:05:58;;;;;;;2.93;1.93;;;12.90;99.90;13.20;100824.00;;;;4891208;28;116523;-66
2022/11/06 09:08:24;;;;;;;1.70;1.07;;;13.20;99.90;13.40;100832.00;;;;4882090;28;106266;-66
2022/11/06 09:10:50;;;;;;;2.40;1.80;;;13.30;99.90;13.40;100824.00;;;;4878262;28;108302;-66
2022/11/06 09:13:16;;;;;;;1.57;1.47;;;13.30;99.90;13.40;100821.00;;;;4875903;28;117296;-66
2022/11/06 09:15:42;;;;;;;2.30;1.10;;;13.30;99.90;13.50;100820.00;;;;4881525;28;88311;-66
2022/11/06 09:18:07;;;;;;;2.60;1.07;;;13.50;99.90;13.50;100816.00;;;;4878036;28;110682;-66
2022/11/06 09:20:33;;;;;;;1.47;1.10;;;13.50;99.90;13.40;100807.00;;;;4874588;28;98226;-67
2022/11/06 09:23:02;;;;;;;3.17;1.30;;;13.50;99.90;13.50;100816.00;;;;4889963;28;91234;-65
2022/11/06 09:25:28;;;;;;;4.97;1.50;;;13.50;99.90;13.40;100811.00;;;;4881057;28;88631;-66
2022/11/06 09:27:54;;;;;;;1.43;0.97;;;13.40;99.50;13.40;100816.00;;;;4879598;28;99217;-66
2022/11/06 09:30:22;;;;;;;1.50;1.40;;;13.50;98.10;13.40;100809.00;;;;4876975;28;108758;-65
2022/11/06 09:32:58;;;;;;;1.00;0.63;;;13.40;98.50;13.60;100803.00;;;;4876968;28;89129;-63
2022/11/06 09:35:26;;;;;;;0.93;0.93;;;13.50;98.30;13.70;100804.00;;;;4883311;28;88649;-64
2022/11/06 09:37:52;;;;;;;4.07;1.00;;;13.60;98.10;13.90;100804.00;;;;4875674;28;92469;-64
2022/11/06 09:40:51;;;;;;;2.40;1.53;;;13.80;97.90;13.90;100805.00;;;;4875083;28;107686;-64
2022/11/06 09:43:46;;;;;;;1.20;1.10;;;13.90;96.80;14.00;100801.00;;;;4875764;28;88386;-64
2022/11/06 09:46:23;;;;;;;0.87;0.80;;;13.90;95.80;14.20;100808.00;;;;4872087;28;88069;-64
2022/11/06 09:49:20;;;;;;;1.60;1.03;;;14.00;96.20;14.40;100808.00;;;;4880011;28;87644;-63
2022/11/06 09:51:56;;;;;;;1.57;1.27;;;14.20;95.60;14.50;100804.00;;;;4879138;28;87818;-63
2022/11/06 09:54:28;;;;;;;1.20;1.10;;;14.40;93.30;14.60;100813.00;;;;4890970;28;88144;-64
2022/11/06 09:57:02;;;;;;;1.57;0.97;;;14.40;93.90;14.80;100809.00;;;;4875562;28;87841;-64
2022/11/06 09:59:33;;;;;;;1.03;0.87;;;14.60;93.80;14.80;100798.00;;;;4877760;28;87708;-66
2022/11/06 10:02:02;;;;;;;1.10;0.80;;;14.70;92.70;14.90;100797.00;;;;4878551;28;94664;-65
2022/11/06 10:04:52;;;;;;;2.50;0.70;;;14.80;91.90;15.00;100812.00;;;;4879780;28;88518;-63
2022/11/06 10:07:29;;;;;;;0.87;0.83;;;14.90;91.60;14.90;100796.00;;;;4890885;28;110230;-64
2022/11/06 10:09:56;;;;;;;1.30;1.10;;;14.80;88.30;14.90;100793.00;;;;4880859;28;94195;-63
2022/11/06 10:12:53;;;;;;;1.77;1.57;;;14.80;88.10;14.90;100793.00;;;;4879673;28;88873;-64
2022/11/06 10:15:22;;;;;;;2.10;1.03;;;14.80;88.70;15.10;100789.00;;;;4874782;28;102441;-64
2022/11/06 10:17:54;;;;;;;1.30;0.93;;;15.00;86.70;15.20;100784.00;;;;4879647;28;97295;-64
2022/11/06 10:20:43;;;;;;;1.03;0.93;;;15.10;85.30;15.20;100783.00;;;;4872671;28;87536;-64
2022/11/06 10:23:25;;;;;;;1.65;1.20;;;15.10;83.10;15.20;100775.00;;;;4869389;28;87778;-63
2022/11/06 10:26:13;;;;;;;1.75;0.98;;;15.10;82.40;15.30;100768.00;;;;4875448;28;88344;-64
2022/11/06 10:29:20;;;;;;;1.53;1.10;;;15.20;80.40;15.20;100772.00;;;;4873850;28;89640;-64
2022/11/06 10:32:24;;;;;;;1.47;0.93;;;15.20;80.30;15.30;100763.00;;;;4878370;28;88042;-63
2022/11/06 10:34:59;;;;;;;2.97;1.63;;;15.20;81.00;15.60;100770.00;;;;4875484;28;98153;-64
2022/11/06 10:37:55;;;;;;;1.08;0.85;;;15.40;81.90;15.80;100749.00;;;;4890535;28;88503;-63
2022/11/06 10:40:26;;;;;;;1.50;0.77;;;15.60;80.50;15.90;100752.00;;;;4880290;28;106230;-64
2022/11/06 10:43:25;;;;;;;1.25;0.93;;;15.70;76.10;15.90;100741.00;;;;4879172;28;87891;-63
2022/11/06 10:46:00;;;;;;;2.83;1.15;;;15.80;78.00;16.10;100740.00;;;;4878821;28;88124;-63
2022/11/06 10:48:30;;;;;;;2.10;1.25;;;15.90;75.40;16.10;100751.00;;;;4882265;28;113352;-64
2022/11/06 10:51:36;;;;;;;2.58;1.25;;;15.90;75.70;16.20;100735.00;;;;4882354;28;88016;-64
2022/11/06 10:54:04;;;;;;;1.15;0.60;;;16.10;72.30;16.10;100742.00;;;;4875210;28;98249;-64
2022/11/06 10:57:08;;;;;;;5.45;0.90;;;16.00;70.40;16.20;100746.00;;;;4873249;28;89260;-64
2022/11/06 10:59:34;;;;;;;1.55;0.95;;;16.10;72.70;16.50;100742.00;;;;4880116;28;87725;-64
2022/11/06 11:02:00;;;;;;;2.65;1.23;;;16.30;72.40;16.60;100741.00;;;;4879589;28;117243;-65
2022/11/06 11:04:26;;;;;;;1.25;1.08;;;16.40;71.00;16.60;100718.00;;;;4876674;28;102893;-63
2022/11/06 11:06:52;;;;;;;2.03;1.25;;;16.40;69.10;16.40;100724.00;;;;4881190;28;108937;-64
2022/11/06 11:09:32;;;;;;;2.22;1.30;;;16.40;68.40;16.30;100707.00;;;;4876361;28;118647;-63
2022/11/06 11:11:59;;;;;;;1.33;0.82;;;16.20;65.70;16.20;100708.00;;;;4878850;28;88571;-63
2022/11/06 11:14:31;;;;;;;0.98;0.90;;;16.10;66.80;16.10;100709.00;;;;4881456;28;87003;-62
2022/11/06 11:17:07;;;;;;;1.70;1.20;;;16.00;67.60;16.20;100703.00;;;;4877602;28;89237;-65
2022/11/06 11:19:43;;;;;;;1.58;0.80;;;16.00;68.50;16.40;100708.00;;;;4877363;28;87875;-64
2022/11/06 11:22:23;;;;;;;1.10;1.00;;;16.10;69.00;16.50;100693.00;;;;4878393;28;88859;-62
2022/11/06 11:25:07;;;;;;;1.70;1.10;;;16.30;67.10;16.70;100694.00;;;;4882480;28;87711;-62
2022/11/06 11:27:42;;;;;;;1.25;1.20;;;16.50;68.20;16.90;100690.00;;;;4872956;28;88990;-63